sensor_id;sensor_type;location;lat;lon;timestamp;pressure;altitude;pressure_sealevel;temperature;humidity
69245;BME280;56357;52.304;4.870;2024-02-23T00:01:53;98748.13;;;18.15;58.00
69245;BME280;56357;52.304;4.870;2024-02-23T00:04:19;98742.22;;;18.17;58.69
69245;BME280;56357;52.304;4.870;2024-02-23T00:06:46;98756.38;;;18.20;57.97
69245;BME280;56357;52.304;4.870;2024-02-23T00:09:12;98762.78;;;18.12;58.08
69245;BME280;56357;52.304;4.870;2024-02-23T00:11:39;98770.88;;;18.22;58.33
69245;BME280;56357;52.304;4.870;2024-02-23T00:14:12;98768.09;;;18.05;58.22
69245;BME280;56357;52.304;4.870;2024-02-23T00:16:39;98768.59;;;18.07;58.51
69245;BME280;56357;52.304;4.870;2024-02-23T00:19:08;98771.19;;;18.12;58.44
69245;BME280;56357;52.304;4.870;2024-02-23T00:21:36;98783.56;;;18.20;58.34
69245;BME280;56357;52.304;4.870;2024-02-23T00:24:03;98791.28;;;18.06;58.59
69245;BME280;56357;52.304;4.870;2024-02-23T00:26:29;98785.88;;;18.09;58.41
69245;BME280;56357;52.304;4.870;2024-02-23T00:28:55;98795.59;;;18.12;58.63
69245;BME280;56357;52.304;4.870;2024-02-23T00:31:22;98802.34;;;18.02;58.19
69245;BME280;56357;52.304;4.870;2024-02-23T00:33:48;98799.22;;;18.12;58.38
69245;BME280;56357;52.304;4.870;2024-02-23T00:36:15;98804.66;;;18.09;57.94
69245;BME280;56357;52.304;4.870;2024-02-23T00:38:42;98806.31;;;18.01;57.94
69245;BME280;56357;52.304;4.870;2024-02-23T00:41:08;98809.13;;;18.01;58.18
69245;BME280;56357;52.304;4.870;2024-02-23T00:43:41;98822.94;;;18.06;57.76
69245;BME280;56357;52.304;4.870;2024-02-23T00:46:08;98814.56;;;17.98;58.13
69245;BME280;56357;52.304;4.870;2024-02-23T00:48:34;98815.53;;;18.02;58.31
69245;BME280;56357;52.304;4.870;2024-02-23T00:51:01;98824.25;;;18.00;57.69
69245;BME280;56357;52.304;4.870;2024-02-23T00:53:30;98828.72;;;18.01;58.09
69245;BME280;56357;52.304;4.870;2024-02-23T00:55:56;98834.97;;;17.98;58.36
69245;BME280;56357;52.304;4.870;2024-02-23T00:58:23;98838.94;;;17.97;58.17
69245;BME280;56357;52.304;4.870;2024-02-23T01:00:49;98835.47;;;17.92;57.98
69245;BME280;56357;52.304;4.870;2024-02-23T01:03:15;98854.06;;;17.96;58.25
69245;BME280;56357;52.304;4.870;2024-02-23T01:05:42;98846.16;;;17.98;58.09
69245;BME280;56357;52.304;4.870;2024-02-23T01:08:08;98836.47;;;17.96;57.99
69245;BME280;56357;52.304;4.870;2024-02-23T01:10:35;98853.09;;;18.01;58.17
69245;BME280;56357;52.304;4.870;2024-02-23T01:13:01;98861.97;;;17.94;57.69
69245;BME280;56357;52.304;4.870;2024-02-23T01:15:27;98860.50;;;17.88;57.71
69245;BME280;56357;52.304;4.870;2024-02-23T01:17:54;98869.88;;;17.92;57.63
69245;BME280;56357;52.304;4.870;2024-02-23T01:20:21;98869.41;;;17.90;57.91
69245;BME280;56357;52.304;4.870;2024-02-23T01:22:47;98870.22;;;17.82;58.05
69245;BME280;56357;52.304;4.870;2024-02-23T01:25:14;98875.47;;;17.84;57.96
69245;BME280;56357;52.304;4.870;2024-02-23T01:27:41;98874.81;;;17.87;57.73
69245;BME280;56357;52.304;4.870;2024-02-23T01:30:10;98885.00;;;17.83;58.08
69245;BME280;56357;52.304;4.870;2024-02-23T01:32:36;98891.44;;;17.83;57.57
69245;BME280;56357;52.304;4.870;2024-02-23T01:35:05;98897.06;;;17.83;57.95
69245;BME280;56357;52.304;4.870;2024-02-23T01:37:33;98887.19;;;17.86;58.26
69245;BME280;56357;52.304;4.870;2024-02-23T01:39:59;98891.63;;;17.87;57.65
69245;BME280;56357;52.304;4.870;2024-02-23T01:42:26;98896.88;;;17.80;57.89
69245;BME280;56357;52.304;4.870;2024-02-23T01:44:53;98907.09;;;17.76;58.34
69245;BME280;56357;52.304;4.870;2024-02-23T01:47:22;98907.63;;;17.86;57.72
69245;BME280;56357;52.304;4.870;2024-02-23T01:49:48;98905.63;;;17.78;57.83
69245;BME280;56357;52.304;4.870;2024-02-23T01:52:16;98915.00;;;17.82;57.80
69245;BME280;56357;52.304;4.870;2024-02-23T01:54:43;98914.16;;;17.73;57.83
69245;BME280;56357;52.304;4.870;2024-02-23T01:57:10;98911.34;;;17.73;58.06
69245;BME280;56357;52.304;4.870;2024-02-23T01:59:38;98923.88;;;17.76;58.39
69245;BME280;56357;52.304;4.870;2024-02-23T02:02:05;98912.19;;;17.74;57.41
69245;BME280;56357;52.304;4.870;2024-02-23T02:04:31;98912.03;;;17.79;57.68
69245;BME280;56357;52.304;4.870;2024-02-23T02:06:59;98922.41;;;17.78;57.42
69245;BME280;56357;52.304;4.870;2024-02-23T02:09:26;98921.25;;;17.71;57.86
69245;BME280;56357;52.304;4.870;2024-02-23T02:11:53;98920.75;;;17.69;57.95
69245;BME280;56357;52.304;4.870;2024-02-23T02:14:19;98923.03;;;17.75;56.73
69245;BME280;56357;52.304;4.870;2024-02-23T02:16:45;98930.28;;;17.68;57.48
69245;BME280;56357;52.304;4.870;2024-02-23T02:19:13;98918.41;;;17.62;57.84
69245;BME280;56357;52.304;4.870;2024-02-23T02:21:41;98924.16;;;17.57;57.99
69245;BME280;56357;52.304;4.870;2024-02-23T02:24:07;98923.00;;;17.58;57.37
69245;BME280;56357;52.304;4.870;2024-02-23T02:26:36;98923.22;;;17.70;57.28
69245;BME280;56357;52.304;4.870;2024-02-23T02:29:03;98940.00;;;17.70;57.54
69245;BME280;56357;52.304;4.870;2024-02-23T02:31:29;98939.00;;;17.66;57.64
69245;BME280;56357;52.304;4.870;2024-02-23T02:34:02;98938.84;;;17.71;57.57
69245;BME280;56357;52.304;4.870;2024-02-23T02:36:28;98945.94;;;17.69;57.79
69245;BME280;56357;52.304;4.870;2024-02-23T02:38:54;98947.56;;;17.70;57.72
69245;BME280;56357;52.304;4.870;2024-02-23T02:41:23;98938.16;;;17.66;57.73
69245;BME280;56357;52.304;4.870;2024-02-23T02:43:50;98947.19;;;17.54;57.84
69245;BME280;56357;52.304;4.870;2024-02-23T02:46:17;98943.97;;;17.69;57.90
69245;BME280;56357;52.304;4.870;2024-02-23T02:48:43;98935.19;;;17.62;57.63
69245;BME280;56357;52.304;4.870;2024-02-23T02:51:10;98949.56;;;17.69;57.60
69245;BME280;56357;52.304;4.870;2024-02-23T02:53:36;98951.53;;;17.69;57.00
69245;BME280;56357;52.304;4.870;2024-02-23T02:56:05;98954.16;;;17.65;57.65
69245;BME280;56357;52.304;4.870;2024-02-23T02:58:32;98954.78;;;17.62;57.37
69245;BME280;56357;52.304;4.870;2024-02-23T03:00:58;98956.97;;;17.65;57.39
69245;BME280;56357;52.304;4.870;2024-02-23T03:03:25;98964.38;;;17.70;57.14
69245;BME280;56357;52.304;4.870;2024-02-23T03:05:51;98954.84;;;17.71;57.21
69245;BME280;56357;52.304;4.870;2024-02-23T03:08:17;98961.13;;;17.76;57.57
69245;BME280;56357;52.304;4.870;2024-02-23T03:10:44;98955.91;;;17.53;57.42
69245;BME280;56357;52.304;4.870;2024-02-23T03:13:10;98967.94;;;17.62;57.35
69245;BME280;56357;52.304;4.870;2024-02-23T03:15:37;98972.38;;;17.54;57.32
69245;BME280;56357;52.304;4.870;2024-02-23T03:18:03;98971.47;;;17.67;57.48
69245;BME280;56357;52.304;4.870;2024-02-23T03:20:29;98973.75;;;17.65;57.58
69245;BME280;56357;52.304;4.870;2024-02-23T03:22:56;98964.19;;;17.58;57.58
69245;BME280;56357;52.304;4.870;2024-02-23T03:25:22;98964.03;;;17.63;58.01
69245;BME280;56357;52.304;4.870;2024-02-23T03:27:49;98969.28;;;17.56;57.70
69245;BME280;56357;52.304;4.870;2024-02-23T03:30:15;98981.09;;;17.53;57.76
69245;BME280;56357;52.304;4.870;2024-02-23T03:32:41;98975.31;;;17.49;57.45
69245;BME280;56357;52.304;4.870;2024-02-23T03:35:08;98968.16;;;17.65;57.51
69245;BME280;56357;52.304;4.870;2024-02-23T03:37:34;98969.13;;;17.61;57.34
69245;BME280;56357;52.304;4.870;2024-02-23T03:40:01;98971.81;;;17.74;57.17
69245;BME280;56357;52.304;4.870;2024-02-23T03:42:28;98980.72;;;17.85;56.91
69245;BME280;56357;52.304;4.870;2024-02-23T03:44:54;98989.38;;;17.66;57.44
69245;BME280;56357;52.304;4.870;2024-02-23T03:47:21;98983.50;;;17.76;57.07
69245;BME280;56357;52.304;4.870;2024-02-23T03:49:47;98981.81;;;17.67;57.18
69245;BME280;56357;52.304;4.870;2024-02-23T03:52:14;98981.72;;;17.89;56.67
69245;BME280;56357;52.304;4.870;2024-02-23T03:54:41;98990.25;;;17.75;57.14
69245;BME280;56357;52.304;4.870;2024-02-23T03:57:07;98988.94;;;17.73;57.00
69245;BME280;56357;52.304;4.870;2024-02-23T03:59:36;98996.00;;;17.70;56.80
69245;BME280;56357;52.304;4.870;2024-02-23T04:02:02;98990.41;;;17.70;57.04
69245;BME280;56357;52.304;4.870;2024-02-23T04:04:29;98997.84;;;17.75;57.36
69245;BME280;56357;52.304;4.870;2024-02-23T04:06:55;98992.38;;;17.70;57.13
69245;BME280;56357;52.304;4.870;2024-02-23T04:09:22;98987.28;;;17.72;56.67
69245;BME280;56357;52.304;4.870;2024-02-23T04:11:48;99004.25;;;17.75;56.36
69245;BME280;56357;52.304;4.870;2024-02-23T04:14:14;98998.78;;;17.70;57.17
69245;BME280;56357;52.304;4.870;2024-02-23T04:16:41;99002.44;;;17.71;57.25
69245;BME280;56357;52.304;4.870;2024-02-23T04:19:06;99002.75;;;17.69;56.96
69245;BME280;56357;52.304;4.870;2024-02-23T04:21:33;99007.69;;;17.72;56.82
69245;BME280;56357;52.304;4.870;2024-02-23T04:23:59;99011.34;;;17.81;56.72
69245;BME280;56357;52.304;4.870;2024-02-23T04:26:26;99012.13;;;17.73;57.29
69245;BME280;56357;52.304;4.870;2024-02-23T04:28:52;99016.09;;;17.72;57.57
69245;BME280;56357;52.304;4.870;2024-02-23T04:31:18;99011.03;;;17.83;57.25
69245;BME280;56357;52.304;4.870;2024-02-23T04:33:45;99011.22;;;17.86;56.12
69245;BME280;56357;52.304;4.870;2024-02-23T04:36:11;99023.38;;;17.82;56.82
69245;BME280;56357;52.304;4.870;2024-02-23T04:38:37;99024.84;;;17.79;56.59
69245;BME280;56357;52.304;4.870;2024-02-23T04:41:04;99024.84;;;17.79;56.73
69245;BME280;56357;52.304;4.870;2024-02-23T04:43:31;99019.56;;;17.78;56.46
69245;BME280;56357;52.304;4.870;2024-02-23T04:45:57;99040.53;;;17.80;56.79
69245;BME280;56357;52.304;4.870;2024-02-23T04:48:23;99037.22;;;17.78;56.71
69245;BME280;56357;52.304;4.870;2024-02-23T04:50:50;99039.19;;;17.78;56.90
69245;BME280;56357;52.304;4.870;2024-02-23T04:53:17;99040.00;;;17.78;56.68
69245;BME280;56357;52.304;4.870;2024-02-23T04:55:44;99033.31;;;17.88;56.31
69245;BME280;56357;52.304;4.870;2024-02-23T04:58:10;99038.91;;;17.96;56.70
69245;BME280;56357;52.304;4.870;2024-02-23T05:00:37;99039.03;;;17.83;56.47
69245;BME280;56357;52.304;4.870;2024-02-23T05:03:05;99045.47;;;17.83;56.55
69245;BME280;56357;52.304;4.870;2024-02-23T05:05:32;99041.19;;;17.86;56.67
69245;BME280;56357;52.304;4.870;2024-02-23T05:07:58;99035.28;;;17.87;56.54
69245;BME280;56357;52.304;4.870;2024-02-23T05:10:25;99040.00;;;17.78;56.90
69245;BME280;56357;52.304;4.870;2024-02-23T05:12:51;99033.59;;;17.78;56.84
69245;BME280;56357;52.304;4.870;2024-02-23T05:15:18;99030.00;;;17.86;56.44
69245;BME280;56357;52.304;4.870;2024-02-23T05:17:44;99035.28;;;17.87;56.09
69245;BME280;56357;52.304;4.870;2024-02-23T05:20:11;99022.19;;;17.74;56.42
69245;BME280;56357;52.304;4.870;2024-02-23T05:22:38;99018.28;;;17.84;56.18
69245;BME280;56357;52.304;4.870;2024-02-23T05:25:05;99015.66;;;17.87;56.54
69245;BME280;56357;52.304;4.870;2024-02-23T05:27:32;99014.81;;;17.87;56.12
69245;BME280;56357;52.304;4.870;2024-02-23T05:29:58;99027.03;;;17.82;56.59
69245;BME280;56357;52.304;4.870;2024-02-23T05:32:25;99022.72;;;17.85;56.62
69245;BME280;56357;52.304;4.870;2024-02-23T05:34:51;99020.25;;;17.83;56.14
69245;BME280;56357;52.304;4.870;2024-02-23T05:37:19;99021.03;;;17.75;56.62
69245;BME280;56357;52.304;4.870;2024-02-23T05:39:45;99024.56;;;17.89;56.62
69245;BME280;56357;52.304;4.870;2024-02-23T05:42:12;99019.63;;;17.86;56.20
69245;BME280;56357;52.304;4.870;2024-02-23T05:44:39;99015.72;;;18.04;56.21
69245;BME280;56357;52.304;4.870;2024-02-23T05:47:05;99019.44;;;18.31;55.81
69245;BME280;56357;52.304;4.870;2024-02-23T05:49:32;99019.56;;;18.17;56.07
69245;BME280;56357;52.304;4.870;2024-02-23T05:52:00;99004.69;;;17.99;55.52
69245;BME280;56357;52.304;4.870;2024-02-23T05:54:26;99008.47;;;18.03;55.97
69245;BME280;56357;52.304;4.870;2024-02-23T05:56:54;99011.41;;;17.98;56.23
69245;BME280;56357;52.304;4.870;2024-02-23T05:59:20;99010.78;;;18.10;55.91
69245;BME280;56357;52.304;4.870;2024-02-23T06:01:46;99011.28;;;18.12;55.93
69245;BME280;56357;52.304;4.870;2024-02-23T06:04:13;99014.38;;;17.93;56.34
69245;BME280;56357;52.304;4.870;2024-02-23T06:06:41;99016.09;;;18.11;56.29
69245;BME280;56357;52.304;4.870;2024-02-23T06:09:08;99007.69;;;18.20;55.11
69245;BME280;56357;52.304;4.870;2024-02-23T06:11:35;99007.47;;;17.99;56.51
69245;BME280;56357;52.304;4.870;2024-02-23T06:14:01;99007.03;;;18.14;55.84
69245;BME280;56357;52.304;4.870;2024-02-23T06:16:27;99011.13;;;18.00;56.04
69245;BME280;56357;52.304;4.870;2024-02-23T06:18:54;99021.53;;;18.16;55.99
69245;BME280;56357;52.304;4.870;2024-02-23T06:21:20;99015.22;;;18.02;56.57
69245;BME280;56357;52.304;4.870;2024-02-23T06:23:46;99017.06;;;18.07;55.77
69245;BME280;56357;52.304;4.870;2024-02-23T06:26:13;99032.69;;;17.99;56.58
69245;BME280;56357;52.304;4.870;2024-02-23T06:28:39;99036.00;;;18.10;55.90
69245;BME280;56357;52.304;4.870;2024-02-23T06:31:08;99038.84;;;18.18;55.92
69245;BME280;56357;52.304;4.870;2024-02-23T06:33:34;99037.63;;;18.02;56.07
69245;BME280;56357;52.304;4.870;2024-02-23T06:36:01;99036.84;;;18.10;55.94
69245;BME280;56357;52.304;4.870;2024-02-23T06:38:28;99035.53;;;18.16;55.53
69245;BME280;56357;52.304;4.870;2024-02-23T06:40:55;99024.78;;;18.49;55.14
69245;BME280;56357;52.304;4.870;2024-02-23T06:43:22;99023.72;;;18.37;55.30
69245;BME280;56357;52.304;4.870;2024-02-23T06:45:49;99024.59;;;18.54;55.04
69245;BME280;56357;52.304;4.870;2024-02-23T06:48:15;99019.78;;;18.38;55.11
69245;BME280;56357;52.304;4.870;2024-02-23T06:50:41;99026.50;;;18.37;55.33
69245;BME280;56357;52.304;4.870;2024-02-23T06:53:08;99032.53;;;18.61;55.30
69245;BME280;56357;52.304;4.870;2024-02-23T06:55:34;99040.94;;;18.69;55.30
69245;BME280;56357;52.304;4.870;2024-02-23T06:58:01;99035.75;;;18.37;55.99
69245;BME280;56357;52.304;4.870;2024-02-23T07:00:30;99035.34;;;18.78;54.60
69245;BME280;56357;52.304;4.870;2024-02-23T07:02:56;99040.78;;;18.83;54.78
69245;BME280;56357;52.304;4.870;2024-02-23T07:05:24;99018.53;;;18.78;55.11
69245;BME280;56357;52.304;4.870;2024-02-23T07:07:51;99032.88;;;18.68;55.79
69245;BME280;56357;52.304;4.870;2024-02-23T07:10:17;99026.94;;;19.03;55.55
69245;BME280;56357;52.304;4.870;2024-02-23T07:12:45;99036.34;;;19.16;55.37
69245;BME280;56357;52.304;4.870;2024-02-23T07:15:12;99043.44;;;18.96;55.00
69245;BME280;56357;52.304;4.870;2024-02-23T07:17:38;99038.66;;;18.97;54.72
69245;BME280;56357;52.304;4.870;2024-02-23T07:20:05;99034.84;;;18.76;55.69
69245;BME280;56357;52.304;4.870;2024-02-23T07:22:32;99039.63;;;18.50;56.52
69245;BME280;56357;52.304;4.870;2024-02-23T07:24:59;99044.22;;;18.54;56.62
69245;BME280;56357;52.304;4.870;2024-02-23T07:27:26;99040.13;;;18.60;56.12
69245;BME280;56357;52.304;4.870;2024-02-23T07:29:53;99036.19;;;18.87;55.15
69245;BME280;56357;52.304;4.870;2024-02-23T07:32:19;99035.03;;;18.71;56.27
69245;BME280;56357;52.304;4.870;2024-02-23T07:34:45;99028.13;;;18.77;56.49
69245;BME280;56357;52.304;4.870;2024-02-23T07:37:13;99026.94;;;18.78;56.41
69245;BME280;56357;52.304;4.870;2024-02-23T07:39:40;99020.03;;;18.84;56.64
69245;BME280;56357;52.304;4.870;2024-02-23T07:42:06;99021.66;;;18.85;56.07
69245;BME280;56357;52.304;4.870;2024-02-23T07:44:35;99009.94;;;19.00;56.20
69245;BME280;56357;52.304;4.870;2024-02-23T07:47:02;99010.63;;;18.80;56.38
69245;BME280;56357;52.304;4.870;2024-02-23T07:49:29;99005.66;;;18.94;56.03
69245;BME280;56357;52.304;4.870;2024-02-23T07:51:55;99004.00;;;18.93;55.97
69245;BME280;56357;52.304;4.870;2024-02-23T07:54:22;99011.09;;;18.82;57.01
69245;BME280;56357;52.304;4.870;2024-02-23T07:56:48;99008.78;;;18.75;56.82
69245;BME280;56357;52.304;4.870;2024-02-23T07:59:14;98998.09;;;18.69;57.22
69245;BME280;56357;52.304;4.870;2024-02-23T08:01:41;99000.53;;;19.04;55.93
69245;BME280;56357;52.304;4.870;2024-02-23T08:04:07;98998.75;;;18.74;57.01
69245;BME280;56357;52.304;4.870;2024-02-23T08:06:33;98996.09;;;18.78;56.00
69245;BME280;56357;52.304;4.870;2024-02-23T08:09:00;98991.97;;;18.67;56.70
69245;BME280;56357;52.304;4.870;2024-02-23T08:11:27;98999.72;;;18.70;57.06
69245;BME280;56357;52.304;4.870;2024-02-23T08:13:53;99008.63;;;18.72;57.06
69245;BME280;56357;52.304;4.870;2024-02-23T08:16:19;99006.00;;;18.67;56.81
69245;BME280;56357;52.304;4.870;2024-02-23T08:18:46;99011.75;;;18.62;57.12
69245;BME280;56357;52.304;4.870;2024-02-23T08:21:12;99010.75;;;18.58;57.20
69245;BME280;56357;52.304;4.870;2024-02-23T08:23:39;99006.97;;;18.62;57.11
69245;BME280;56357;52.304;4.870;2024-02-23T08:26:06;99004.84;;;18.59;56.77
69245;BME280;56357;52.304;4.870;2024-02-23T08:28:32;98997.72;;;18.79;56.80
69245;BME280;56357;52.304;4.870;2024-02-23T08:30:58;99001.03;;;18.64;56.53
69245;BME280;56357;52.304;4.870;2024-02-23T08:33:25;98998.88;;;18.52;57.45
69245;BME280;56357;52.304;4.870;2024-02-23T08:35:51;98996.25;;;18.64;56.86
69245;BME280;56357;52.304;4.870;2024-02-23T08:38:17;99002.03;;;18.68;56.50
69245;BME280;56357;52.304;4.870;2024-02-23T08:40:44;98993.59;;;18.68;57.47
69245;BME280;56357;52.304;4.870;2024-02-23T08:43:11;98993.13;;;18.66;57.03
69245;BME280;56357;52.304;4.870;2024-02-23T08:45:38;98989.31;;;18.62;57.23
69245;BME280;56357;52.304;4.870;2024-02-23T08:48:04;98997.56;;;18.58;56.68
69245;BME280;56357;52.304;4.870;2024-02-23T08:50:32;98994.94;;;18.53;56.87
69245;BME280;56357;52.304;4.870;2024-02-23T08:52:59;98989.50;;;18.74;56.80
69245;BME280;56357;52.304;4.870;2024-02-23T08:55:25;98990.00;;;18.76;56.87
69245;BME280;56357;52.304;4.870;2024-02-23T08:57:52;98981.41;;;18.55;56.87
69245;BME280;56357;52.304;4.870;2024-02-23T09:00:18;98981.41;;;18.64;56.51
69245;BME280;56357;52.304;4.870;2024-02-23T09:02:44;98974.47;;;18.53;57.04
69245;BME280;56357;52.304;4.870;2024-02-23T09:05:11;98975.13;;;18.75;56.52
69245;BME280;56357;52.304;4.870;2024-02-23T09:07:37;98964.56;;;18.81;56.37
69245;BME280;56357;52.304;4.870;2024-02-23T09:10:04;98977.13;;;18.75;56.59
69245;BME280;56357;52.304;4.870;2024-02-23T09:12:33;98988.03;;;18.76;56.87
69245;BME280;56357;52.304;4.870;2024-02-23T09:15:00;99000.22;;;18.63;56.92
69245;BME280;56357;52.304;4.870;2024-02-23T09:17:26;98981.09;;;18.65;57.19
69245;BME280;56357;52.304;4.870;2024-02-23T09:19:53;98987.16;;;18.93;56.83
69245;BME280;56357;52.304;4.870;2024-02-23T09:22:19;98977.94;;;18.75;56.72
69245;BME280;56357;52.304;4.870;2024-02-23T09:24:45;98975.50;;;18.65;57.04
69245;BME280;56357;52.304;4.870;2024-02-23T09:27:12;98976.78;;;18.68;56.72
69245;BME280;56357;52.304;4.870;2024-02-23T09:29:40;98981.09;;;18.65;57.55
69245;BME280;56357;52.304;4.870;2024-02-23T09:32:06;98982.25;;;18.90;56.51
69245;BME280;56357;52.304;4.870;2024-02-23T09:34:33;98985.03;;;18.81;56.97
69245;BME280;56357;52.304;4.870;2024-02-23T09:36:59;98975.31;;;18.70;57.08
69245;BME280;56357;52.304;4.870;2024-02-23T09:39:26;98986.69;;;18.57;57.45
69245;BME280;56357;52.304;4.870;2024-02-23T09:41:55;98984.03;;;18.60;57.65
69245;BME280;56357;52.304;4.870;2024-02-23T09:44:22;98995.56;;;18.50;58.04
69245;BME280;56357;52.304;4.870;2024-02-23T09:46:49;99001.34;;;18.45;58.10
69245;BME280;56357;52.304;4.870;2024-02-23T09:49:16;99007.28;;;18.69;57.48
69245;BME280;56357;52.304;4.870;2024-02-23T09:51:43;99012.38;;;18.50;57.77
69245;BME280;56357;52.304;4.870;2024-02-23T09:54:10;99007.63;;;19.02;56.20
69245;BME280;56357;52.304;4.870;2024-02-23T09:56:37;99011.09;;;18.99;56.04
69245;BME280;56357;52.304;4.870;2024-02-23T09:59:04;99016.69;;;18.90;56.27
69245;BME280;56357;52.304;4.870;2024-02-23T10:01:32;99010.25;;;19.24;55.61
69245;BME280;56357;52.304;4.870;2024-02-23T10:04:00;98999.31;;;19.31;55.53
69245;BME280;56357;52.304;4.870;2024-02-23T10:06:28;99012.41;;;19.18;55.48
69245;BME280;56357;52.304;4.870;2024-02-23T10:08:54;99001.06;;;18.98;56.62
69245;BME280;56357;52.304;4.870;2024-02-23T10:11:21;99011.41;;;19.06;56.06
69245;BME280;56357;52.304;4.870;2024-02-23T10:13:48;99001.81;;;19.15;56.20
69245;BME280;56357;52.304;4.870;2024-02-23T10:16:19;99013.41;;;18.88;56.61
69245;BME280;56357;52.304;4.870;2024-02-23T10:18:47;98999.72;;;18.87;56.63
69245;BME280;56357;52.304;4.870;2024-02-23T10:21:15;99007.63;;;18.85;56.32
69245;BME280;56357;52.304;4.870;2024-02-23T10:23:43;99005.50;;;18.99;55.69
69245;BME280;56357;52.304;4.870;2024-02-23T10:26:10;99021.31;;;19.21;55.09
69245;BME280;56357;52.304;4.870;2024-02-23T10:28:37;99026.59;;;18.54;56.56
69245;BME280;56357;52.304;4.870;2024-02-23T10:31:06;99026.09;;;18.52;57.01
69245;BME280;56357;52.304;4.870;2024-02-23T10:33:34;99034.03;;;18.67;56.71
69245;BME280;56357;52.304;4.870;2024-02-23T10:36:01;99039.31;;;18.68;56.59
69245;BME280;56357;52.304;4.870;2024-02-23T10:38:28;99039.81;;;18.96;56.17
69245;BME280;56357;52.304;4.870;2024-02-23T10:40:58;99038.84;;;18.75;56.44
69245;BME280;56357;52.304;4.870;2024-02-23T10:43:30;99050.84;;;18.75;56.43
69245;BME280;56357;52.304;4.870;2024-02-23T10:45:59;99047.56;;;18.99;56.08
69245;BME280;56357;52.304;4.870;2024-02-23T10:48:28;99044.91;;;18.60;56.53
69245;BME280;56357;52.304;4.870;2024-02-23T10:50:56;99048.38;;;18.65;56.69
69245;BME280;56357;52.304;4.870;2024-02-23T10:53:24;99053.16;;;18.65;56.24
69245;BME280;56357;52.304;4.870;2024-02-23T10:55:57;99049.22;;;18.83;55.65
69245;BME280;56357;52.304;4.870;2024-02-23T10:58:24;99044.09;;;18.59;56.41
69245;BME280;56357;52.304;4.870;2024-02-23T11:00:50;99047.38;;;18.53;56.28
69245;BME280;56357;52.304;4.870;2024-02-23T11:03:18;99049.66;;;18.42;56.11
69245;BME280;56357;52.304;4.870;2024-02-23T11:05:48;99061.88;;;18.55;55.49
69245;BME280;56357;52.304;4.870;2024-02-23T11:08:17;99073.72;;;18.43;55.41
69245;BME280;56357;52.304;4.870;2024-02-23T11:10:51;99068.66;;;18.54;55.23
69245;BME280;56357;52.304;4.870;2024-02-23T11:13:18;99064.25;;;18.95;54.83
69245;BME280;56357;52.304;4.870;2024-02-23T11:15:44;99068.88;;;19.17;54.46
69245;BME280;56357;52.304;4.870;2024-02-23T11:18:27;99079.25;;;19.08;54.43
69245;BME280;56357;52.304;4.870;2024-02-23T11:20:54;99089.00;;;19.10;54.98
69245;BME280;56357;52.304;4.870;2024-02-23T11:23:22;99110.13;;;18.99;54.87
69245;BME280;56357;52.304;4.870;2024-02-23T11:28:28;99096.75;;;18.88;55.67
69245;BME280;56357;52.304;4.870;2024-02-23T11:30:55;99091.47;;;18.95;55.55
69245;BME280;56357;52.304;4.870;2024-02-23T11:33:28;99098.91;;;18.99;55.58
69245;BME280;56357;52.304;4.870;2024-02-23T11:36:08;99104.47;;;18.65;56.21
69245;BME280;56357;52.304;4.870;2024-02-23T11:38:34;99078.59;;;19.02;56.06
69245;BME280;56357;52.304;4.870;2024-02-23T11:41:02;99098.25;;;19.11;56.44
69245;BME280;56357;52.304;4.870;2024-02-23T11:43:28;99107.13;;;18.87;56.78
69245;BME280;56357;52.304;4.870;2024-02-23T11:45:55;99116.22;;;19.01;56.30
69245;BME280;56357;52.304;4.870;2024-02-23T11:48:22;99117.78;;;18.51;57.74
69245;BME280;56357;52.304;4.870;2024-02-23T11:50:49;99108.28;;;18.30;57.33
69245;BME280;56357;52.304;4.870;2024-02-23T11:53:16;99116.66;;;18.61;55.46
69245;BME280;56357;52.304;4.870;2024-02-23T11:55:44;99124.22;;;18.52;55.40
69245;BME280;56357;52.304;4.870;2024-02-23T11:58:10;99119.97;;;18.63;54.96
69245;BME280;56357;52.304;4.870;2024-02-23T12:00:37;99123.06;;;18.53;55.18
69245;BME280;56357;52.304;4.870;2024-02-23T12:03:03;99134.56;;;18.43;55.55
69245;BME280;56357;52.304;4.870;2024-02-23T12:05:30;99132.00;;;18.24;55.90
69245;BME280;56357;52.304;4.870;2024-02-23T12:07:56;99138.25;;;18.21;55.88
69245;BME280;56357;52.304;4.870;2024-02-23T12:10:23;99145.16;;;18.23;55.30
69245;BME280;56357;52.304;4.870;2024-02-23T12:12:50;99139.72;;;18.18;54.09
69245;BME280;56357;52.304;4.870;2024-02-23T12:15:16;99141.19;;;18.16;53.27
69245;BME280;56357;52.304;4.870;2024-02-23T12:17:47;99145.41;;;18.05;52.61
69245;BME280;56357;52.304;4.870;2024-02-23T12:20:14;99141.78;;;18.04;52.32
69245;BME280;56357;52.304;4.870;2024-02-23T12:22:41;99146.78;;;18.16;50.38
69245;BME280;56357;52.304;4.870;2024-02-23T12:25:08;99141.84;;;18.44;49.24
69245;BME280;56357;52.304;4.870;2024-02-23T12:27:34;99144.47;;;18.49;49.75
69245;BME280;56357;52.304;4.870;2024-02-23T12:30:01;99156.84;;;18.48;50.12
69245;BME280;56357;52.304;4.870;2024-02-23T12:32:27;99145.38;;;18.36;50.28
69245;BME280;56357;52.304;4.870;2024-02-23T12:34:53;99148.47;;;18.56;50.06
69245;BME280;56357;52.304;4.870;2024-02-23T12:37:20;99146.06;;;18.80;50.26
69245;BME280;56357;52.304;4.870;2024-02-23T12:39:48;99148.25;;;18.92;50.19
69245;BME280;56357;52.304;4.870;2024-02-23T12:42:14;99148.59;;;19.25;49.83
69245;BME280;56357;52.304;4.870;2024-02-23T12:44:41;99137.00;;;19.00;50.16
69245;BME280;56357;52.304;4.870;2024-02-23T12:47:07;99149.66;;;18.72;51.13
69245;BME280;56357;52.304;4.870;2024-02-23T12:49:34;99152.81;;;18.79;51.16
69245;BME280;56357;52.304;4.870;2024-02-23T12:52:01;99155.16;;;18.86;51.75
69245;BME280;56357;52.304;4.870;2024-02-23T12:54:27;99151.22;;;19.21;51.44
69245;BME280;56357;52.304;4.870;2024-02-23T12:56:53;99162.56;;;18.82;52.36
69245;BME280;56357;52.304;4.870;2024-02-23T12:59:20;99149.41;;;19.16;52.30
69245;BME280;56357;52.304;4.870;2024-02-23T13:01:46;99157.69;;;19.39;52.10